sensor_id;sensor_type;location;lat;lon;timestamp;temperature;humidity
75821;DHT22;64454;51.984;9.838;2022-11-24T00:02:27;8.30;38.00
75821;DHT22;64454;51.984;9.838;2022-11-24T00:04:54;8.40;44.00
75821;DHT22;64454;51.984;9.838;2022-11-24T00:07:21;8.30;33.80
75821;DHT22;64454;51.984;9.838;2022-11-24T00:09:48;8.30;37.50
75821;DHT22;64454;51.984;9.838;2022-11-24T00:12:15;8.30;41.00
75821;DHT22;64454;51.984;9.838;2022-11-24T00:14:41;8.30;39.70
75821;DHT22;64454;51.984;9.838;2022-11-24T00:17:09;8.30;45.20
75821;DHT22;64454;51.984;9.838;2022-11-24T00:19:37;8.30;45.20
75821;DHT22;64454;51.984;9.838;2022-11-24T00:22:04;8.20;41.00
75821;DHT22;64454;51.984;9.838;2022-11-24T00:24:31;8.30;41.80
75821;DHT22;64454;51.984;9.838;2022-11-24T00:26:58;8.30;44.70
75821;DHT22;64454;51.984;9.838;2022-11-24T00:29:24;8.30;47.70
75821;DHT22;64454;51.984;9.838;2022-11-24T00:31:51;8.30;46.80
75821;DHT22;64454;51.984;9.838;2022-11-24T00:34:18;8.40;48.00
75821;DHT22;64454;51.984;9.838;2022-11-24T00:36:46;8.30;42.10
75821;DHT22;64454;51.984;9.838;2022-11-24T00:39:14;8.30;48.40
75821;DHT22;64454;51.984;9.838;2022-11-24T00:41:42;8.30;49.10
75821;DHT22;64454;51.984;9.838;2022-11-24T00:44:09;8.30;57.30
75821;DHT22;64454;51.984;9.838;2022-11-24T00:46:36;8.50;54.10
75821;DHT22;64454;51.984;9.838;2022-11-24T00:49:03;8.30;49.80
75821;DHT22;64454;51.984;9.838;2022-11-24T00:51:30;8.40;48.60
75821;DHT22;64454;51.984;9.838;2022-11-24T00:53:59;8.40;50.00
75821;DHT22;64454;51.984;9.838;2022-11-24T00:56:28;8.30;47.10
75821;DHT22;64454;51.984;9.838;2022-11-24T00:58:55;8.30;51.30
75821;DHT22;64454;51.984;9.838;2022-11-24T01:01:24;8.30;54.60
75821;DHT22;64454;51.984;9.838;2022-11-24T01:03:53;8.20;59.60
75821;DHT22;64454;51.984;9.838;2022-11-24T01:06:22;8.20;68.30
75821;DHT22;64454;51.984;9.838;2022-11-24T01:08:51;8.20;73.40
75821;DHT22;64454;51.984;9.838;2022-11-24T01:11:21;8.20;82.10
75821;DHT22;64454;51.984;9.838;2022-11-24T01:13:52;8.10;84.70
75821;DHT22;64454;51.984;9.838;2022-11-24T01:16:25;8.20;93.30
75821;DHT22;64454;51.984;9.838;2022-11-24T01:18:55;8.20;88.90
75821;DHT22;64454;51.984;9.838;2022-11-24T01:21:22;8.20;81.80
75821;DHT22;64454;51.984;9.838;2022-11-24T01:23:50;8.20;83.40
75821;DHT22;64454;51.984;9.838;2022-11-24T01:26:20;8.20;79.90
75821;DHT22;64454;51.984;9.838;2022-11-24T01:28:51;8.10;86.10
75821;DHT22;64454;51.984;9.838;2022-11-24T01:31:19;8.20;95.20
75821;DHT22;64454;51.984;9.838;2022-11-24T01:33:46;8.20;96.20
75821;DHT22;64454;51.984;9.838;2022-11-24T01:36:13;8.20;95.80
75821;DHT22;64454;51.984;9.838;2022-11-24T01:38:40;8.30;94.90
75821;DHT22;64454;51.984;9.838;2022-11-24T01:41:10;8.30;86.20
75821;DHT22;64454;51.984;9.838;2022-11-24T01:43:40;8.30;83.60
75821;DHT22;64454;51.984;9.838;2022-11-24T01:46:14;8.40;79.70
75821;DHT22;64454;51.984;9.838;2022-11-24T01:48:47;8.30;75.30
75821;DHT22;64454;51.984;9.838;2022-11-24T01:51:21;8.40;75.10
75821;DHT22;64454;51.984;9.838;2022-11-24T01:53:53;8.30;70.10
75821;DHT22;64454;51.984;9.838;2022-11-24T01:56:24;8.30;74.10
75821;DHT22;64454;51.984;9.838;2022-11-24T01:58:55;8.30;81.60
75821;DHT22;64454;51.984;9.838;2022-11-24T02:01:24;8.30;88.70
75821;DHT22;64454;51.984;9.838;2022-11-24T02:03:51;8.30;90.90
75821;DHT22;64454;51.984;9.838;2022-11-24T02:06:21;8.30;91.80
75821;DHT22;64454;51.984;9.838;2022-11-24T02:08:57;8.40;87.80
75821;DHT22;64454;51.984;9.838;2022-11-24T02:11:32;8.50;80.00
75821;DHT22;64454;51.984;9.838;2022-11-24T02:14:03;8.50;85.20
75821;DHT22;64454;51.984;9.838;2022-11-24T02:16:32;8.50;77.30
75821;DHT22;64454;51.984;9.838;2022-11-24T02:19:01;8.50;74.40
75821;DHT22;64454;51.984;9.838;2022-11-24T02:21:32;8.50;73.90
75821;DHT22;64454;51.984;9.838;2022-11-24T02:24:02;8.50;70.90
75821;DHT22;64454;51.984;9.838;2022-11-24T02:26:40;8.50;73.50
75821;DHT22;64454;51.984;9.838;2022-11-24T02:29:10;8.50;72.20
75821;DHT22;64454;51.984;9.838;2022-11-24T02:31:40;8.50;76.20
75821;DHT22;64454;51.984;9.838;2022-11-24T02:34:11;8.40;73.50
75821;DHT22;64454;51.984;9.838;2022-11-24T02:36:38;8.40;80.60
75821;DHT22;64454;51.984;9.838;2022-11-24T02:39:09;8.40;82.00
75821;DHT22;64454;51.984;9.838;2022-11-24T02:41:38;8.50;83.50
75821;DHT22;64454;51.984;9.838;2022-11-24T02:44:08;8.50;99.30
75821;DHT22;64454;51.984;9.838;2022-11-24T02:46:37;8.50;74.80
75821;DHT22;64454;51.984;9.838;2022-11-24T02:49:04;8.60;76.50
75821;DHT22;64454;51.984;9.838;2022-11-24T02:51:31;8.60;72.00
75821;DHT22;64454;51.984;9.838;2022-11-24T02:53:59;8.60;70.50
75821;DHT22;64454;51.984;9.838;2022-11-24T02:56:26;8.50;78.60
75821;DHT22;64454;51.984;9.838;2022-11-24T02:58:54;8.50;72.40
75821;DHT22;64454;51.984;9.838;2022-11-24T03:01:21;8.50;73.50
75821;DHT22;64454;51.984;9.838;2022-11-24T03:03:48;8.60;75.50
75821;DHT22;64454;51.984;9.838;2022-11-24T03:06:15;8.50;76.80
75821;DHT22;64454;51.984;9.838;2022-11-24T03:08:42;8.50;83.60
75821;DHT22;64454;51.984;9.838;2022-11-24T03:11:09;8.60;85.60
75821;DHT22;64454;51.984;9.838;2022-11-24T03:13:36;8.70;85.80
75821;DHT22;64454;51.984;9.838;2022-11-24T03:16:07;8.70;75.00
75821;DHT22;64454;51.984;9.838;2022-11-24T03:18:34;8.70;65.90
75821;DHT22;64454;51.984;9.838;2022-11-24T03:21:01;8.80;57.40
75821;DHT22;64454;51.984;9.838;2022-11-24T03:23:28;8.70;58.80
75821;DHT22;64454;51.984;9.838;2022-11-24T03:26:05;8.70;61.80
75821;DHT22;64454;51.984;9.838;2022-11-24T03:28:33;8.70;68.40
75821;DHT22;64454;51.984;9.838;2022-11-24T03:31:00;8.70;63.30
75821;DHT22;64454;51.984;9.838;2022-11-24T03:33:29;8.80;70.10
75821;DHT22;64454;51.984;9.838;2022-11-24T03:35:55;8.80;69.00
75821;DHT22;64454;51.984;9.838;2022-11-24T03:38:22;8.80;63.90
75821;DHT22;64454;51.984;9.838;2022-11-24T03:40:49;8.90;62.50
75821;DHT22;64454;51.984;9.838;2022-11-24T03:43:16;9.00;55.50
75821;DHT22;64454;51.984;9.838;2022-11-24T03:45:44;9.00;49.00
75821;DHT22;64454;51.984;9.838;2022-11-24T03:48:11;9.10;51.00
75821;DHT22;64454;51.984;9.838;2022-11-24T03:50:40;9.00;40.80
75821;DHT22;64454;51.984;9.838;2022-11-24T03:53:07;9.00;41.60
75821;DHT22;64454;51.984;9.838;2022-11-24T03:55:34;8.90;40.80
75821;DHT22;64454;51.984;9.838;2022-11-24T03:58:01;8.90;42.40
75821;DHT22;64454;51.984;9.838;2022-11-24T04:00:28;8.80;44.30
75821;DHT22;64454;51.984;9.838;2022-11-24T04:02:54;8.80;49.80
75821;DHT22;64454;51.984;9.838;2022-11-24T04:05:21;8.90;53.30
75821;DHT22;64454;51.984;9.838;2022-11-24T04:07:54;8.90;54.90
75821;DHT22;64454;51.984;9.838;2022-11-24T04:10:21;8.90;55.40
75821;DHT22;64454;51.984;9.838;2022-11-24T04:12:48;8.80;56.60
75821;DHT22;64454;51.984;9.838;2022-11-24T04:15:16;8.80;57.90
75821;DHT22;64454;51.984;9.838;2022-11-24T04:17:45;8.70;61.30
75821;DHT22;64454;51.984;9.838;2022-11-24T04:20:13;8.70;70.80
75821;DHT22;64454;51.984;9.838;2022-11-24T04:22:40;8.70;74.50
75821;DHT22;64454;51.984;9.838;2022-11-24T04:25:09;8.60;76.90
75821;DHT22;64454;51.984;9.838;2022-11-24T04:27:37;8.70;78.90
75821;DHT22;64454;51.984;9.838;2022-11-24T04:30:06;8.70;76.50
75821;DHT22;64454;51.984;9.838;2022-11-24T04:32:34;8.70;74.50
75821;DHT22;64454;51.984;9.838;2022-11-24T04:35:01;8.70;69.50
75821;DHT22;64454;51.984;9.838;2022-11-24T04:37:28;8.80;87.00
75821;DHT22;64454;51.984;9.838;2022-11-24T04:39:55;8.70;67.90
75821;DHT22;64454;51.984;9.838;2022-11-24T04:42:23;8.60;71.40
75821;DHT22;64454;51.984;9.838;2022-11-24T04:44:50;8.50;82.50
75821;DHT22;64454;51.984;9.838;2022-11-24T04:47:19;8.50;88.10
75821;DHT22;64454;51.984;9.838;2022-11-24T04:49:48;8.40;94.00
75821;DHT22;64454;51.984;9.838;2022-11-24T04:52:15;8.30;99.90
75821;DHT22;64454;51.984;9.838;2022-11-24T04:54:43;8.30;99.90
75821;DHT22;64454;51.984;9.838;2022-11-24T04:57:14;8.30;99.90
75821;DHT22;64454;51.984;9.838;2022-11-24T04:59:44;8.30;99.90
75821;DHT22;64454;51.984;9.838;2022-11-24T05:02:11;8.30;99.90
75821;DHT22;64454;51.984;9.838;2022-11-24T05:04:38;8.30;99.90
75821;DHT22;64454;51.984;9.838;2022-11-24T05:07:06;8.30;99.90
75821;DHT22;64454;51.984;9.838;2022-11-24T05:09:33;8.20;98.60
75821;DHT22;64454;51.984;9.838;2022-11-24T05:12:19;8.20;95.20
75821;DHT22;64454;51.984;9.838;2022-11-24T05:14:48;8.30;91.30
75821;DHT22;64454;51.984;9.838;2022-11-24T05:17:15;8.20;93.40
75821;DHT22;64454;51.984;9.838;2022-11-24T05:19:41;8.10;86.20
75821;DHT22;64454;51.984;9.838;2022-11-24T05:22:08;8.00;83.00
75821;DHT22;64454;51.984;9.838;2022-11-24T05:24:35;8.00;86.60
75821;DHT22;64454;51.984;9.838;2022-11-24T05:27:02;7.90;94.20
75821;DHT22;64454;51.984;9.838;2022-11-24T05:29:29;7.80;98.90
75821;DHT22;64454;51.984;9.838;2022-11-24T05:31:57;7.70;99.90
75821;DHT22;64454;51.984;9.838;2022-11-24T05:34:24;7.70;99.90
75821;DHT22;64454;51.984;9.838;2022-11-24T05:36:52;7.70;99.90
75821;DHT22;64454;51.984;9.838;2022-11-24T05:39:20;7.70;99.90
75821;DHT22;64454;51.984;9.838;2022-11-24T05:41:47;7.60;99.90
75821;DHT22;64454;51.984;9.838;2022-11-24T05:44:14;7.60;99.90
75821;DHT22;64454;51.984;9.838;2022-11-24T05:46:40;7.70;99.90
75821;DHT22;64454;51.984;9.838;2022-11-24T05:49:09;7.60;99.90
75821;DHT22;64454;51.984;9.838;2022-11-24T05:51:36;7.60;99.90
75821;DHT22;64454;51.984;9.838;2022-11-24T05:54:03;7.70;99.90
75821;DHT22;64454;51.984;9.838;2022-11-24T05:56:31;7.70;99.90
75821;DHT22;64454;51.984;9.838;2022-11-24T05:58:57;7.70;99.90
75821;DHT22;64454;51.984;9.838;2022-11-24T06:01:24;7.70;99.90
75821;DHT22;64454;51.984;9.838;2022-11-24T06:03:51;7.70;99.90
75821;DHT22;64454;51.984;9.838;2022-11-24T06:06:20;7.70;99.90
75821;DHT22;64454;51.984;9.838;2022-11-24T06:08:47;7.70;99.90
75821;DHT22;64454;51.984;9.838;2022-11-24T06:11:13;7.70;99.90
75821;DHT22;64454;51.984;9.838;2022-11-24T06:13:44;7.70;99.90
75821;DHT22;64454;51.984;9.838;2022-11-24T06:16:13;7.80;99.90
75821;DHT22;64454;51.984;9.838;2022-11-24T06:18:40;7.80;99.90
75821;DHT22;64454;51.984;9.838;2022-11-24T06:21:07;7.80;99.90
75821;DHT22;64454;51.984;9.838;2022-11-24T06:23:35;7.80;99.90
75821;DHT22;64454;51.984;9.838;2022-11-24T06:26:03;7.80;99.90
75821;DHT22;64454;51.984;9.838;2022-11-24T06:28:30;7.90;99.90
75821;DHT22;64454;51.984;9.838;2022-11-24T06:31:00;7.90;99.90
75821;DHT22;64454;51.984;9.838;2022-11-24T06:33:30;8.00;99.90
75821;DHT22;64454;51.984;9.838;2022-11-24T06:35:59;8.00;99.90
75821;DHT22;64454;51.984;9.838;2022-11-24T06:38:28;8.10;99.90
75821;DHT22;64454;51.984;9.838;2022-11-24T06:41:01;8.10;99.90
75821;DHT22;64454;51.984;9.838;2022-11-24T06:43:29;8.10;99.90
75821;DHT22;64454;51.984;9.838;2022-11-24T06:45:56;8.10;99.90
75821;DHT22;64454;51.984;9.838;2022-11-24T06:48:24;8.10;99.90
75821;DHT22;64454;51.984;9.838;2022-11-24T06:50:53;8.00;99.90
75821;DHT22;64454;51.984;9.838;2022-11-24T06:53:24;8.10;99.90
75821;DHT22;64454;51.984;9.838;2022-11-24T06:55:51;8.20;99.90
75821;DHT22;64454;51.984;9.838;2022-11-24T06:58:20;8.20;99.90
75821;DHT22;64454;51.984;9.838;2022-11-24T07:00:47;8.30;99.90
75821;DHT22;64454;51.984;9.838;2022-11-24T07:03:14;8.30;99.90
75821;DHT22;64454;51.984;9.838;2022-11-24T07:05:43;8.20;99.90
75821;DHT22;64454;51.984;9.838;2022-11-24T07:08:11;8.20;99.90
75821;DHT22;64454;51.984;9.838;2022-11-24T07:10:38;8.30;99.90
75821;DHT22;64454;51.984;9.838;2022-11-24T07:13:06;8.30;99.90
75821;DHT22;64454;51.984;9.838;2022-11-24T07:15:35;8.40;99.90
75821;DHT22;64454;51.984;9.838;2022-11-24T07:18:02;8.50;99.90
75821;DHT22;64454;51.984;9.838;2022-11-24T07:20:29;8.50;99.90
75821;DHT22;64454;51.984;9.838;2022-11-24T07:22:57;8.70;99.90
75821;DHT22;64454;51.984;9.838;2022-11-24T07:25:24;8.70;99.90
75821;DHT22;64454;51.984;9.838;2022-11-24T07:27:55;8.70;99.90
75821;DHT22;64454;51.984;9.838;2022-11-24T07:30:22;8.70;99.90
75821;DHT22;64454;51.984;9.838;2022-11-24T07:32:51;8.80;99.90
75821;DHT22;64454;51.984;9.838;2022-11-24T07:35:23;8.80;99.90
75821;DHT22;64454;51.984;9.838;2022-11-24T07:37:53;8.80;99.90
75821;DHT22;64454;51.984;9.838;2022-11-24T07:40:20;8.90;99.90
75821;DHT22;64454;51.984;9.838;2022-11-24T07:42:48;8.90;99.90
75821;DHT22;64454;51.984;9.838;2022-11-24T07:45:15;9.00;99.90
75821;DHT22;64454;51.984;9.838;2022-11-24T07:47:42;9.00;99.90
75821;DHT22;64454;51.984;9.838;2022-11-24T07:50:11;9.00;96.40
75821;DHT22;64454;51.984;9.838;2022-11-24T07:52:38;9.00;96.40
75821;DHT22;64454;51.984;9.838;2022-11-24T07:55:06;9.10;91.30
75821;DHT22;64454;51.984;9.838;2022-11-24T07:57:34;9.10;92.60
75821;DHT22;64454;51.984;9.838;2022-11-24T08:00:01;9.20;85.30
75821;DHT22;64454;51.984;9.838;2022-11-24T08:02:30;9.20;82.20
75821;DHT22;64454;51.984;9.838;2022-11-24T08:04:57;9.40;82.20
75821;DHT22;64454;51.984;9.838;2022-11-24T08:07:25;9.60;61.50
75821;DHT22;64454;51.984;9.838;2022-11-24T08:09:52;9.80;48.90
75821;DHT22;64454;51.984;9.838;2022-11-24T08:12:19;9.70;34.40
75821;DHT22;64454;51.984;9.838;2022-11-24T08:14:47;9.70;37.50
75821;DHT22;64454;51.984;9.838;2022-11-24T08:17:15;9.70;40.70
75821;DHT22;64454;51.984;9.838;2022-11-24T08:19:42;9.70;47.00
75821;DHT22;64454;51.984;9.838;2022-11-24T08:22:09;9.70;48.40
75821;DHT22;64454;51.984;9.838;2022-11-24T08:24:38;9.80;51.70
75821;DHT22;64454;51.984;9.838;2022-11-24T08:27:10;10.10;46.00
75821;DHT22;64454;51.984;9.838;2022-11-24T08:29:37;10.80;19.50
75821;DHT22;64454;51.984;9.838;2022-11-24T08:32:05;11.50;1.00
75821;DHT22;64454;51.984;9.838;2022-11-24T08:34:32;12.30;1.00
75821;DHT22;64454;51.984;9.838;2022-11-24T08:36:59;12.90;1.00
75821;DHT22;64454;51.984;9.838;2022-11-24T08:39:26;13.10;1.00
75821;DHT22;64454;51.984;9.838;2022-11-24T08:41:54;13.30;1.00
75821;DHT22;64454;51.984;9.838;2022-11-24T08:44:21;13.20;1.00
75821;DHT22;64454;51.984;9.838;2022-11-24T08:46:48;12.90;1.00
75821;DHT22;64454;51.984;9.838;2022-11-24T08:49:15;12.70;1.00
75821;DHT22;64454;51.984;9.838;2022-11-24T08:51:43;12.60;1.00
75821;DHT22;64454;51.984;9.838;2022-11-24T08:54:11;12.50;1.00
75821;DHT22;64454;51.984;9.838;2022-11-24T08:56:40;12.30;1.00
75821;DHT22;64454;51.984;9.838;2022-11-24T08:59:11;12.30;1.00
75821;DHT22;64454;51.984;9.838;2022-11-24T09:01:38;12.20;1.00
75821;DHT22;64454;51.984;9.838;2022-11-24T09:04:06;12.20;1.00
75821;DHT22;64454;51.984;9.838;2022-11-24T09:06:33;12.30;1.00
75821;DHT22;64454;51.984;9.838;2022-11-24T09:09:00;12.30;1.00
75821;DHT22;64454;51.984;9.838;2022-11-24T09:11:27;12.40;1.00
75821;DHT22;64454;51.984;9.838;2022-11-24T09:13:55;12.30;1.00
75821;DHT22;64454;51.984;9.838;2022-11-24T09:16:25;12.10;1.00
75821;DHT22;64454;51.984;9.838;2022-11-24T09:18:54;12.00;1.00
75821;DHT22;64454;51.984;9.838;2022-11-24T09:21:21;11.90;1.00
75821;DHT22;64454;51.984;9.838;2022-11-24T09:23:50;11.80;1.00
75821;DHT22;64454;51.984;9.838;2022-11-24T09:26:20;11.60;1.00
75821;DHT22;64454;51.984;9.838;2022-11-24T09:28:49;11.50;1.00
75821;DHT22;64454;51.984;9.838;2022-11-24T09:31:19;11.40;1.00
75821;DHT22;64454;51.984;9.838;2022-11-24T09:33:48;11.40;1.00
75821;DHT22;64454;51.984;9.838;2022-11-24T09:36:16;11.30;1.00
75821;DHT22;64454;51.984;9.838;2022-11-24T09:38:42;11.30;1.00
75821;DHT22;64454;51.984;9.838;2022-11-24T09:41:38;11.30;1.00
75821;DHT22;64454;51.984;9.838;2022-11-24T09:44:35;11.50;1.00
75821;DHT22;64454;51.984;9.838;2022-11-24T09:47:17;11.80;1.00
75821;DHT22;64454;51.984;9.838;2022-11-24T09:49:56;12.20;1.00
75821;DHT22;64454;51.984;9.838;2022-11-24T09:52:37;12.30;1.00
75821;DHT22;64454;51.984;9.838;2022-11-24T09:55:24;12.40;1.00
75821;DHT22;64454;51.984;9.838;2022-11-24T09:58:02;12.60;1.00
75821;DHT22;64454;51.984;9.838;2022-11-24T10:00:37;12.80;1.00
75821;DHT22;64454;51.984;9.838;2022-11-24T10:03:04;13.00;1.00
75821;DHT22;64454;51.984;9.838;2022-11-24T10:05:35;13.20;1.00
75821;DHT22;64454;51.984;9.838;2022-11-24T10:08:08;13.50;1.00
75821;DHT22;64454;51.984;9.838;2022-11-24T10:10:48;13.90;1.00
75821;DHT22;64454;51.984;9.838;2022-11-24T10:13:31;14.30;1.00
75821;DHT22;64454;51.984;9.838;2022-11-24T10:16:15;14.50;1.00
75821;DHT22;64454;51.984;9.838;2022-11-24T10:19:01;15.30;1.00
75821;DHT22;64454;51.984;9.838;2022-11-24T10:21:52;16.00;1.00
75821;DHT22;64454;51.984;9.838;2022-11-24T10:24:43;16.60;1.00
75821;DHT22;64454;51.984;9.838;2022-11-24T10:27:24;17.20;1.00
75821;DHT22;64454;51.984;9.838;2022-11-24T10:29:55;18.50;1.00
75821;DHT22;64454;51.984;9.838;2022-11-24T10:32:25;20.20;1.00
75821;DHT22;64454;51.984;9.838;2022-11-24T10:35:05;20.70;1.00
75821;DHT22;64454;51.984;9.838;2022-11-24T10:37:49;20.60;1.00
75821;DHT22;64454;51.984;9.838;2022-11-24T10:40:27;19.10;1.00
75821;DHT22;64454;51.984;9.838;2022-11-24T10:43:00;18.30;1.00
75821;DHT22;64454;51.984;9.838;2022-11-24T10:45:27;18.40;1.00
75821;DHT22;64454;51.984;9.838;2022-11-24T10:47:56;18.50;1.00
75821;DHT22;64454;51.984;9.838;2022-11-24T10:50:26;18.40;1.00
75821;DHT22;64454;51.984;9.838;2022-11-24T10:53:03;18.10;1.00
75821;DHT22;64454;51.984;9.838;2022-11-24T10:55:59;18.00;1.00
75821;DHT22;64454;51.984;9.838;2022-11-24T10:58:31;17.60;1.00
75821;DHT22;64454;51.984;9.838;2022-11-24T11:01:01;17.30;1.00
75821;DHT22;64454;51.984;9.838;2022-11-24T11:03:46;16.80;1.00
75821;DHT22;64454;51.984;9.838;2022-11-24T11:06:20;16.40;1.00
75821;DHT22;64454;51.984;9.838;2022-11-24T11:09:14;16.00;1.00
75821;DHT22;64454;51.984;9.838;2022-11-24T11:11:44;15.80;1.00
75821;DHT22;64454;51.984;9.838;2022-11-24T11:14:28;15.60;1.00
75821;DHT22;64454;51.984;9.838;2022-11-24T11:16:56;15.20;1.00
75821;DHT22;64454;51.984;9.838;2022-11-24T11:19:35;14.70;1.00
75821;DHT22;64454;51.984;9.838;2022-11-24T11:22:05;14.20;1.00
75821;DHT22;64454;51.984;9.838;2022-11-24T11:24:43;14.00;1.00
75821;DHT22;64454;51.984;9.838;2022-11-24T11:27:16;14.00;1.00
75821;DHT22;64454;51.984;9.838;2022-11-24T11:29:45;14.10;1.00
75821;DHT22;64454;51.984;9.838;2022-11-24T11:32:17;14.20;1.00
75821;DHT22;64454;51.984;9.838;2022-11-24T11:34:47;14.40;1.00
75821;DHT22;64454;51.984;9.838;2022-11-24T11:37:16;14.60;1.00
75821;DHT22;64454;51.984;9.838;2022-11-24T11:39:47;14.50;1.00
75821;DHT22;64454;51.984;9.838;2022-11-24T11:42:17;14.50;1.00
75821;DHT22;64454;51.984;9.838;2022-11-24T11:44:55;14.40;1.00
75821;DHT22;64454;51.984;9.838;2022-11-24T11:47:28;14.50;1.00
75821;DHT22;64454;51.984;9.838;2022-11-24T11:50:01;14.30;1.00
75821;DHT22;64454;51.984;9.838;2022-11-24T11:52:59;14.20;1.00
75821;DHT22;64454;51.984;9.838;2022-11-24T11:55:52;14.10;1.00
75821;DHT22;64454;51.984;9.838;2022-11-24T11:58:52;14.20;1.00
75821;DHT22;64454;51.984;9.838;2022-11-24T12:04:42;14.30;1.00
75821;DHT22;64454;51.984;9.838;2022-11-24T12:07:35;14.10;1.00
75821;DHT22;64454;51.984;9.838;2022-11-24T12:10:22;14.00;1.00
75821;DHT22;64454;51.984;9.838;2022-11-24T12:13:22;13.70;1.00
75821;DHT22;64454;51.984;9.838;2022-11-24T12:16:14;13.70;1.00
75821;DHT22;64454;51.984;9.838;2022-11-24T12:19:07;13.90;1.00
75821;DHT22;64454;51.984;9.838;2022-11-24T12:21:50;14.10;1.00
75821;DHT22;64454;51.984;9.838;2022-11-24T12:24:35;14.30;1.00
75821;DHT22;64454;51.984;9.838;2022-11-24T12:27:17;14.20;1.00
75821;DHT22;64454;51.984;9.838;2022-11-24T12:30:09;14.10;1.00
75821;DHT22;64454;51.984;9.838;2022-11-24T12:33:04;13.90;1.00
75821;DHT22;64454;51.984;9.838;2022-11-24T12:35:42;13.70;1.00
75821;DHT22;64454;51.984;9.838;2022-11-24T12:38:27;13.50;1.00
75821;DHT22;64454;51.984;9.838;2022-11-24T12:41:25;13.40;1.00
75821;DHT22;64454;51.984;9.838;2022-11-24T12:44:02;13.00;1.00
75821;DHT22;64454;51.984;9.838;2022-11-24T12:46:45;12.90;1.00
75821;DHT22;64454;51.984;9.838;2022-11-24T12:49:25;12.70;1.00
75821;DHT22;64454;51.984;9.838;2022-11-24T12:52:02;12.70;1.00
75821;DHT22;64454;51.984;9.838;2022-11-24T12:54:39;12.70;1.00
75821;DHT22;64454;51.984;9.838;2022-11-24T12:57:09;12.40;1.00
75821;DHT22;64454;51.984;9.838;2022-11-24T12:59:47;12.50;1.00
75821;DHT22;64454;51.984;9.838;2022-11-24T13:02:32;12.40;1.00
75821;DHT22;64454;51.984;9.838;2022-11-24T13:05:18;12.30;1.00
75821;DHT22;64454;51.984;9.838;2022-11-24T13:07:56;12.20;1.00
75821;DHT22;64454;51.984;9.838;2022-11-24T13:10:33;12.00;1.00
75821;DHT22;64454;51.984;9.838;2022-11-24T13:13:03;11.90;1.00
75821;DHT22;64454;51.984;9.838;2022-11-24T13:15:32;11.90;1.00
75821;DHT22;64454;51.984;9.838;2022-11-24T13:18:45;11.80;1.00
75821;DHT22;64454;51.984;9.838;2022-11-24T13:21:31;11.80;1.00
75821;DHT22;64454;51.984;9.838;2022-11-24T13:24:23;11.80;1.00
75821;DHT22;64454;51.984;9.838;2022-11-24T13:26:53;11.70;1.00
75821;DHT22;64454;51.984;9.838;2022-11-24T13:29:34;11.80;1.00
75821;DHT22;64454;51.984;9.838;2022-11-24T13:35:25;11.90;1.00
75821;DHT22;64454;51.984;9.838;2022-11-24T13:37:53;11.90;1.00
75821;DHT22;64454;51.984;9.838;2022-11-24T13:40:41;11.90;1.00
75821;DHT22;64454;51.984;9.838;2022-11-24T13:43:20;12.00;1.00
75821;DHT22;64454;51.984;9.838;2022-11-24T13:45:51;12.00;1.00
75821;DHT22;64454;51.984;9.838;2022-11-24T13:48:57;11.90;1.00
75821;DHT22;64454;51.984;9.838;2022-11-24T13:51:26;11.90;1.00
75821;DHT22;64454;51.984;9.838;2022-11-24T13:53:55;11.90;1.00
75821;DHT22;64454;51.984;9.838;2022-11-24T13:56:28;12.00;1.00
75821;DHT22;64454;51.984;9.838;2022-11-24T13:58:58;11.90;1.00
75821;DHT22;64454;51.984;9.838;2022-11-24T14:01:29;11.90;1.00
75821;DHT22;64454;51.984;9.838;2022-11-24T14:04:03;11.90;1.00
75821;DHT22;64454;51.984;9.838;2022-11-24T14:06:42;11.90;1.00
75821;DHT22;64454;51.984;9.838;2022-11-24T14:09:21;12.00;1.00
75821;DHT22;64454;51.984;9.838;2022-11-24T14:12:01;11.90;1.00
75821;DHT22;64454;51.984;9.838;2022-11-24T14:14:33;12.00;1.00
75821;DHT22;64454;51.984;9.838;2022-11-24T14:17:12;12.10;1.00
75821;DHT22;64454;51.984;9.838;2022-11-24T14:19:43;12.20;1.00
75821;DHT22;64454;51.984;9.838;2022-11-24T14:22:14;12.30;1.00
75821;DHT22;64454;51.984;9.838;2022-11-24T14:24:50;12.20;1.00
75821;DHT22;64454;51.984;9.838;2022-11-24T14:27:24;12.20;1.00
75821;DHT22;64454;51.984;9.838;2022-11-24T14:29:56;12.20;1.00
75821;DHT22;64454;51.984;9.838;2022-11-24T14:32:25;12.20;1.00
75821;DHT22;64454;51.984;9.838;2022-11-24T14:34:52;12.10;1.00
75821;DHT22;64454;51.984;9.838;2022-11-24T14:37:21;12.20;1.00
75821;DHT22;64454;51.984;9.838;2022-11-24T14:39:48;12.10;1.00
75821;DHT22;64454;51.984;9.838;2022-11-24T14:42:17;12.10;1.00
75821;DHT22;64454;51.984;9.838;2022-11-24T14:44:49;12.10;1.00
75821;DHT22;64454;51.984;9.838;2022-11-24T14:47:22;12.10;1.00
75821;DHT22;64454;51.984;9.838;2022-11-24T14:49:53;12.20;1.00
75821;DHT22;64454;51.984;9.838;2022-11-24T14:52:24;12.10;1.00
75821;DHT22;64454;51.984;9.838;2022-11-24T14:54:53;12.20;1.00
75821;DHT22;64454;51.984;9.838;2022-11-24T14:57:25;12.20;1.00
75821;DHT22;64454;51.984;9.838;2022-11-24T15:00:17;12.30;1.00
75821;DHT22;64454;51.984;9.838;2022-11-24T15:02:47;12.20;1.00
75821;DHT22;64454;51.984;9.838;2022-11-24T15:05:17;12.20;1.00
75821;DHT22;64454;51.984;9.838;2022-11-24T15:07:47;12.10;1.00
75821;DHT22;64454;51.984;9.838;2022-11-24T15:10:20;12.10;1.00
75821;DHT22;64454;51.984;9.838;2022-11-24T15:12:54;12.00;1.00
75821;DHT22;64454;51.984;9.838;2022-11-24T15:15:29;12.00;1.00
75821;DHT22;64454;51.984;9.838;2022-11-24T15:18:00;12.00;1.00
75821;DHT22;64454;51.984;9.838;2022-11-24T15:20:29;11.90;1.00
75821;DHT22;64454;51.984;9.838;2022-11-24T15:23:20;11.90;1.00
75821;DHT22;64454;51.984;9.838;2022-11-24T15:25:50;12.00;1.00
75821;DHT22;64454;51.984;9.838;2022-11-24T15:28:19;12.00;1.00
75821;DHT22;64454;51.984;9.838;2022-11-24T15:30:51;11.90;1.00
75821;DHT22;64454;51.984;9.838;2022-11-24T15:33:19;11.90;1.00
75821;DHT22;64454;51.984;9.838;2022-11-24T15:35:48;11.80;1.00
75821;DHT22;64454;51.984;9.838;2022-11-24T15:38:15;11.70;1.00
75821;DHT22;64454;51.984;9.838;2022-11-24T15:40:46;11.60;1.00
75821;DHT22;64454;51.984;9.838;2022-11-24T15:43:25;11.50;1.00
75821;DHT22;64454;51.984;9.838;2022-11-24T15:45:54;11.30;1.00
75821;DHT22;64454;51.984;9.838;2022-11-24T15:48:22;11.20;1.00
75821;DHT22;64454;51.984;9.838;2022-11-24T15:50:49;11.10;1.00
75821;DHT22;64454;51.984;9.838;2022-11-24T15:53:18;11.00;1.00
75821;DHT22;64454;51.984;9.838;2022-11-24T15:55:48;11.00;1.00
75821;DHT22;64454;51.984;9.838;2022-11-24T15:58:15;10.90;1.00
75821;DHT22;64454;51.984;9.838;2022-11-24T16:00:43;10.80;1.00
75821;DHT22;64454;51.984;9.838;2022-11-24T16:03:10;10.90;1.00
75821;DHT22;64454;51.984;9.838;2022-11-24T16:05:38;10.90;1.00
75821;DHT22;64454;51.984;9.838;2022-11-24T16:08:11;10.80;1.00
75821;DHT22;64454;51.984;9.838;2022-11-24T16:10:39;10.90;1.00
75821;DHT22;64454;51.984;9.838;2022-11-24T16:13:09;10.90;1.00
75821;DHT22;64454;51.984;9.838;2022-11-24T16:15:37;10.90;1.00
75821;DHT22;64454;51.984;9.838;2022-11-24T16:18:05;10.90;1.00
75821;DHT22;64454;51.984;9.838;2022-11-24T16:20:33;10.90;1.00